Time;durP1;ratioP1;P1;durP2;ratioP2;P2;SDS_P1;SDS_P2;PMS_P1;PMS_P2;Temp;Humidity;BMP_temperature;BMP_pressure;BME280_temperature;BME280_humidity;BME280_pressure;Samples;Min_cycle;Max_cycle;Signal;HPM_P1;HPM_P2
2024/03/16 00:01:56;;;;;;;230.67;67.20;;;;;;;;;;5014908;28;20595;-45
2024/03/16 00:04:23;;;;;;;236.37;71.33;;;;;;;;;;5014704;28;20407;-45
2024/03/16 00:06:49;;;;;;;237.35;75.30;;;;;;;;;;5014189;28;20450;-45
2024/03/16 00:09:15;;;;;;;235.97;72.53;;;;;;;;;;5014754;28;20721;-45
2024/03/16 00:11:41;;;;;;;234.17;70.27;;;;;;;;;;5014712;28;20974;-45
2024/03/16 00:14:07;;;;;;;234.67;71.07;;;;;;;;;;5014669;28;20925;-45
2024/03/16 00:16:33;;;;;;;234.50;72.32;;;;;;;;;;5014528;28;20423;-45
2024/03/16 00:18:59;;;;;;;238.87;73.67;;;;;;;;;;5014333;28;20182;-45
2024/03/16 00:21:26;;;;;;;232.13;68.10;;;;;;;;;;5014252;28;20822;-45
2024/03/16 00:23:53;;;;;;;234.60;70.60;;;;;;;;;;5014407;28;20405;-45
2024/03/16 00:26:19;;;;;;;233.07;66.80;;;;;;;;;;5014494;28;20281;-45
2024/03/16 00:28:46;;;;;;;233.00;67.50;;;;;;;;;;5014374;28;20254;-46
2024/03/16 00:31:13;;;;;;;238.68;73.65;;;;;;;;;;5014237;28;20168;-45
2024/03/16 00:33:39;;;;;;;234.20;71.53;;;;;;;;;;5014232;28;20216;-45
2024/03/16 00:36:06;;;;;;;234.73;70.27;;;;;;;;;;5013825;28;20220;-45
2024/03/16 00:38:32;;;;;;;231.63;68.90;;;;;;;;;;5014193;28;20413;-45
2024/03/16 00:40:58;;;;;;;233.37;69.70;;;;;;;;;;5013914;28;20830;-46
2024/03/16 00:43:24;;;;;;;235.13;73.30;;;;;;;;;;5014040;28;20429;-45
2024/03/16 00:45:50;;;;;;;235.90;74.57;;;;;;;;;;5013725;28;20700;-45
2024/03/16 00:48:16;;;;;;;237.17;75.07;;;;;;;;;;5013853;28;20905;-45
2024/03/16 00:50:42;;;;;;;230.80;67.70;;;;;;;;;;5014025;28;20821;-45
2024/03/16 00:53:09;;;;;;;234.63;73.93;;;;;;;;;;5013927;28;20829;-45
2024/03/16 00:55:35;;;;;;;235.43;71.38;;;;;;;;;;5013158;28;20441;-45
2024/03/16 00:58:03;;;;;;;233.90;69.50;;;;;;;;;;5013588;28;20180;-45
2024/03/16 01:00:31;;;;;;;235.38;71.55;;;;;;;;;;5012572;28;20201;-45
2024/03/16 01:02:57;;;;;;;232.85;70.03;;;;;;;;;;5013712;28;20687;-45
2024/03/16 01:05:26;;;;;;;234.32;70.65;;;;;;;;;;5013240;28;20546;-45
2024/03/16 01:07:52;;;;;;;232.63;67.80;;;;;;;;;;5014521;28;20547;-44
2024/03/16 01:10:18;;;;;;;230.77;66.97;;;;;;;;;;5013566;28;20180;-45
2024/03/16 01:12:44;;;;;;;236.35;75.07;;;;;;;;;;5013798;28;20438;-45
2024/03/16 01:15:10;;;;;;;237.50;71.87;;;;;;;;;;5012897;28;20705;-44
2024/03/16 01:17:36;;;;;;;232.97;69.40;;;;;;;;;;5013350;28;20413;-45
2024/03/16 01:20:02;;;;;;;235.77;71.87;;;;;;;;;;5013325;28;20472;-45
2024/03/16 01:22:28;;;;;;;236.38;74.45;;;;;;;;;;5013296;28;20782;-44
2024/03/16 01:24:54;;;;;;;234.97;72.87;;;;;;;;;;5013163;28;20189;-44
2024/03/16 01:27:25;;;;;;;235.27;71.67;;;;;;;;;;5012921;28;20463;-44
2024/03/16 01:29:51;;;;;;;231.18;65.82;;;;;;;;;;5013059;28;20415;-45
2024/03/16 01:32:17;;;;;;;235.13;70.77;;;;;;;;;;5013146;28;20833;-44
2024/03/16 01:34:44;;;;;;;230.15;66.95;;;;;;;;;;5013236;28;20415;-44
2024/03/16 01:37:13;;;;;;;233.43;70.47;;;;;;;;;;5012907;28;20203;-45
2024/03/16 01:39:39;;;;;;;234.88;71.13;;;;;;;;;;5013003;28;20465;-44
2024/03/16 01:42:06;;;;;;;235.13;70.85;;;;;;;;;;5013024;28;20185;-44
2024/03/16 01:44:32;;;;;;;235.77;73.43;;;;;;;;;;5012903;28;20795;-44
2024/03/16 01:46:58;;;;;;;236.35;72.32;;;;;;;;;;5012591;28;20224;-45
2024/03/16 01:49:24;;;;;;;235.52;70.45;;;;;;;;;;5012666;28;20172;-45
2024/03/16 01:51:50;;;;;;;232.67;67.37;;;;;;;;;;5012839;28;20168;-45
2024/03/16 01:54:18;;;;;;;236.32;74.18;;;;;;;;;;5012935;28;20800;-45
2024/03/16 01:56:44;;;;;;;237.43;77.18;;;;;;;;;;5012367;28;20201;-45
2024/03/16 01:59:12;;;;;;;237.52;75.47;;;;;;;;;;5012685;28;20555;-45
2024/03/16 02:01:38;;;;;;;240.23;75.45;;;;;;;;;;5012356;28;20181;-44
2024/03/16 02:04:04;;;;;;;234.07;69.65;;;;;;;;;;5012067;28;20235;-44
2024/03/16 02:06:30;;;;;;;235.83;73.07;;;;;;;;;;5011698;28;20225;-44
2024/03/16 02:08:57;;;;;;;231.02;66.57;;;;;;;;;;5012712;28;20411;-44
2024/03/16 02:11:23;;;;;;;236.18;71.47;;;;;;;;;;5012167;28;20176;-44
2024/03/16 02:13:49;;;;;;;235.98;74.57;;;;;;;;;;5012440;28;20205;-45
2024/03/16 02:16:15;;;;;;;238.05;76.82;;;;;;;;;;5011925;28;20744;-44
2024/03/16 02:18:41;;;;;;;235.32;73.30;;;;;;;;;;5012189;28;20184;-44
2024/03/16 02:21:11;;;;;;;236.07;74.43;;;;;;;;;;5012071;28;20236;-45
2024/03/16 02:23:39;;;;;;;234.48;74.10;;;;;;;;;;5012312;28;20534;-44
2024/03/16 02:26:07;;;;;;;231.65;69.40;;;;;;;;;;5011975;28;20184;-45
2024/03/16 02:28:33;;;;;;;231.60;67.07;;;;;;;;;;5004250;28;20187;-45
2024/03/16 02:30:59;;;;;;;240.30;77.30;;;;;;;;;;5011571;28;20653;-45
2024/03/16 02:33:27;;;;;;;238.23;77.37;;;;;;;;;;5009914;28;20427;-44
2024/03/16 02:35:53;;;;;;;232.90;70.15;;;;;;;;;;5011538;28;20438;-45
2024/03/16 02:38:19;;;;;;;235.93;74.60;;;;;;;;;;5011738;28;20264;-45
2024/03/16 02:40:46;;;;;;;232.97;70.40;;;;;;;;;;5011912;28;20598;-44
2024/03/16 02:43:12;;;;;;;231.07;68.50;;;;;;;;;;5011601;28;20441;-45
2024/03/16 02:45:38;;;;;;;234.77;73.97;;;;;;;;;;5011656;28;20229;-45
2024/03/16 02:48:05;;;;;;;234.57;73.20;;;;;;;;;;5011878;28;20415;-45
2024/03/16 02:50:30;;;;;;;234.80;74.07;;;;;;;;;;5011688;28;20416;-44
2024/03/16 02:52:58;;;;;;;236.00;74.50;;;;;;;;;;5011760;28;20195;-45
2024/03/16 02:55:24;;;;;;;236.00;72.55;;;;;;;;;;5011222;28;20420;-44
2024/03/16 02:57:50;;;;;;;234.60;72.13;;;;;;;;;;5011418;28;20182;-44
2024/03/16 03:00:16;;;;;;;236.43;72.57;;;;;;;;;;5011461;28;20503;-45
2024/03/16 03:02:42;;;;;;;230.68;67.70;;;;;;;;;;5011630;28;20867;-44
2024/03/16 03:05:11;;;;;;;240.43;76.80;;;;;;;;;;5011333;28;20257;-44
2024/03/16 03:07:38;;;;;;;229.88;68.35;;;;;;;;;;5011629;28;20489;-45
2024/03/16 03:10:06;;;;;;;236.55;75.78;;;;;;;;;;5011547;28;20180;-44
2024/03/16 03:12:32;;;;;;;235.77;72.90;;;;;;;;;;5003252;28;20540;-44
2024/03/16 03:15:00;;;;;;;237.20;78.07;;;;;;;;;;5011469;28;20177;-45
2024/03/16 03:17:26;;;;;;;234.52;70.70;;;;;;;;;;5011064;28;20197;-45
2024/03/16 03:19:52;;;;;;;234.93;72.00;;;;;;;;;;5011238;28;20283;-44
2024/03/16 03:22:18;;;;;;;233.80;71.67;;;;;;;;;;5010892;28;20902;-45
2024/03/16 03:24:44;;;;;;;233.80;71.28;;;;;;;;;;5011015;28;20410;-45
2024/03/16 03:27:09;;;;;;;235.07;72.47;;;;;;;;;;5010585;28;20196;-44
2024/03/16 03:29:35;;;;;;;232.83;69.13;;;;;;;;;;5011349;28;20416;-44
2024/03/16 03:32:01;;;;;;;232.87;69.37;;;;;;;;;;5011295;28;20421;-45
2024/03/16 03:34:27;;;;;;;238.85;77.65;;;;;;;;;;5011143;28;20417;-44
2024/03/16 03:36:53;;;;;;;231.67;67.30;;;;;;;;;;5010773;28;20594;-44
2024/03/16 03:39:19;;;;;;;235.47;73.60;;;;;;;;;;5010861;28;20497;-45
2024/03/16 03:41:45;;;;;;;234.57;72.30;;;;;;;;;;5010958;28;20430;-45
2024/03/16 03:44:21;;;;;;;231.33;69.83;;;;;;;;;;5010949;28;20992;-44
2024/03/16 03:46:50;;;;;;;235.25;73.22;;;;;;;;;;5010700;28;20523;-45
2024/03/16 03:49:26;;;;;;;233.13;66.88;;;;;;;;;;5010945;28;20221;-44
2024/03/16 03:51:53;;;;;;;234.32;70.82;;;;;;;;;;5011058;28;20667;-44
2024/03/16 03:54:19;;;;;;;235.52;72.18;;;;;;;;;;5011004;28;20205;-45
2024/03/16 03:56:47;;;;;;;233.90;72.65;;;;;;;;;;5010830;28;20202;-45
2024/03/16 03:59:13;;;;;;;233.52;67.00;;;;;;;;;;5010784;28;20190;-45
2024/03/16 04:01:39;;;;;;;228.43;64.47;;;;;;;;;;5010817;28;20198;-45
2024/03/16 04:04:05;;;;;;;232.73;70.07;;;;;;;;;;5010822;28;20226;-45
2024/03/16 04:06:31;;;;;;;233.27;69.60;;;;;;;;;;5010034;28;21124;-45
2024/03/16 04:08:57;;;;;;;234.15;70.57;;;;;;;;;;5011088;28;20188;-45
2024/03/16 04:11:23;;;;;;;234.40;70.28;;;;;;;;;;5010926;28;20187;-45
2024/03/16 04:13:49;;;;;;;231.50;68.88;;;;;;;;;;5010852;28;20172;-44
2024/03/16 04:16:15;;;;;;;232.30;68.20;;;;;;;;;;5010502;28;20221;-45
2024/03/16 04:18:41;;;;;;;232.75;69.53;;;;;;;;;;5010683;28;20438;-45
2024/03/16 04:21:08;;;;;;;229.05;65.28;;;;;;;;;;5011016;28;20236;-45
2024/03/16 04:23:34;;;;;;;234.88;70.70;;;;;;;;;;5011585;28;20259;-46
2024/03/16 04:26:00;;;;;;;230.80;66.68;;;;;;;;;;5010408;28;20564;-46
2024/03/16 04:28:26;;;;;;;231.15;66.63;;;;;;;;;;5010491;28;20187;-45
2024/03/16 04:30:52;;;;;;;231.50;68.57;;;;;;;;;;5010602;28;20181;-45
2024/03/16 04:33:18;;;;;;;230.07;64.37;;;;;;;;;;5010490;28;20559;-45
2024/03/16 04:35:47;;;;;;;230.67;63.73;;;;;;;;;;5012150;28;20440;-45
2024/03/16 04:38:13;;;;;;;231.02;64.97;;;;;;;;;;5014192;28;20411;-45
2024/03/16 04:40:39;;;;;;;233.27;68.87;;;;;;;;;;5014080;28;20268;-45
2024/03/16 04:43:05;;;;;;;235.30;70.30;;;;;;;;;;5014065;28;20417;-44
2024/03/16 04:45:31;;;;;;;230.90;66.70;;;;;;;;;;5013729;28;20200;-45
2024/03/16 04:47:57;;;;;;;232.37;67.97;;;;;;;;;;5013933;28;20818;-44
2024/03/16 04:50:24;;;;;;;232.13;66.93;;;;;;;;;;5013667;28;20419;-45
2024/03/16 04:52:50;;;;;;;231.23;68.00;;;;;;;;;;5013891;28;20425;-46
2024/03/16 04:55:16;;;;;;;237.07;68.57;;;;;;;;;;5013463;28;20258;-45
2024/03/16 04:57:42;;;;;;;228.85;63.92;;;;;;;;;;5014083;28;20408;-45
2024/03/16 05:00:11;;;;;;;230.17;65.73;;;;;;;;;;5013805;28;20261;-45
2024/03/16 05:02:37;;;;;;;225.98;61.67;;;;;;;;;;5013826;28;20551;-45
2024/03/16 05:05:08;;;;;;;234.10;72.38;;;;;;;;;;5013457;28;20172;-46
2024/03/16 05:07:35;;;;;;;232.35;66.40;;;;;;;;;;5013585;28;20206;-45
2024/03/16 05:10:01;;;;;;;229.98;67.20;;;;;;;;;;5013574;28;20577;-45
2024/03/16 05:12:27;;;;;;;231.05;66.13;;;;;;;;;;5013506;28;20276;-45
2024/03/16 05:14:52;;;;;;;229.37;64.83;;;;;;;;;;5013481;28;20316;-45
2024/03/16 05:17:18;;;;;;;233.67;69.40;;;;;;;;;;5012856;28;20462;-45
2024/03/16 05:19:46;;;;;;;227.57;62.00;;;;;;;;;;5013549;28;21025;-45
2024/03/16 05:22:12;;;;;;;227.90;65.10;;;;;;;;;;5013523;28;20923;-45
2024/03/16 05:24:38;;;;;;;228.77;65.00;;;;;;;;;;5013411;28;20179;-45
2024/03/16 05:27:04;;;;;;;234.37;72.10;;;;;;;;;;5012902;28;21154;-45
2024/03/16 05:29:30;;;;;;;229.80;66.30;;;;;;;;;;5013266;28;20460;-45
2024/03/16 05:31:57;;;;;;;235.87;74.20;;;;;;;;;;5013029;28;20184;-45
2024/03/16 05:34:24;;;;;;;234.85;71.22;;;;;;;;;;5013025;28;20402;-46
2024/03/16 05:36:50;;;;;;;227.00;63.22;;;;;;;;;;5012741;28;20189;-45
2024/03/16 05:39:16;;;;;;;233.70;69.87;;;;;;;;;;5012930;28;20240;-45
2024/03/16 05:41:41;;;;;;;231.97;68.30;;;;;;;;;;5013013;28;20460;-45
2024/03/16 05:44:07;;;;;;;229.67;63.27;;;;;;;;;;5013110;28;20470;-45
2024/03/16 05:46:33;;;;;;;231.83;68.97;;;;;;;;;;5011998;28;20424;-45
2024/03/16 05:48:59;;;;;;;231.37;68.97;;;;;;;;;;5012908;28;20466;-45
2024/03/16 05:51:27;;;;;;;233.47;71.20;;;;;;;;;;5012704;28;20411;-46
2024/03/16 05:53:54;;;;;;;231.65;67.15;;;;;;;;;;5012733;28;20426;-45
2024/03/16 05:56:20;;;;;;;227.63;63.13;;;;;;;;;;5012372;28;20190;-46
2024/03/16 05:58:46;;;;;;;232.18;68.28;;;;;;;;;;5012519;28;20188;-45
2024/03/16 06:01:12;;;;;;;229.13;65.27;;;;;;;;;;5012312;28;20206;-45
2024/03/16 06:03:38;;;;;;;228.77;64.57;;;;;;;;;;5012382;28;20409;-44
2024/03/16 06:06:05;;;;;;;225.33;60.67;;;;;;;;;;5012414;28;20452;-44
2024/03/16 06:08:32;;;;;;;229.43;65.90;;;;;;;;;;5012399;28;20419;-45
2024/03/16 06:10:58;;;;;;;230.75;65.53;;;;;;;;;;5012500;28;20263;-44
2024/03/16 06:13:24;;;;;;;230.87;68.03;;;;;;;;;;5012373;28;20613;-45
2024/03/16 06:15:50;;;;;;;225.97;61.13;;;;;;;;;;5011933;28;20442;-45
2024/03/16 06:18:18;;;;;;;232.40;68.57;;;;;;;;;;5012307;28;20899;-44
2024/03/16 06:20:44;;;;;;;225.55;62.53;;;;;;;;;;5012393;28;20201;-45
2024/03/16 06:23:10;;;;;;;225.53;59.50;;;;;;;;;;5012264;28;20648;-45
2024/03/16 06:25:46;;;;;;;226.47;60.07;;;;;;;;;;5011954;28;20462;-44
2024/03/16 06:28:14;;;;;;;231.40;67.55;;;;;;;;;;5012142;28;20485;-45
2024/03/16 06:30:40;;;;;;;228.15;62.58;;;;;;;;;;5012161;28;20203;-45
2024/03/16 06:33:06;;;;;;;225.63;61.20;;;;;;;;;;5012094;28;20181;-44
2024/03/16 06:35:41;;;;;;;229.27;64.28;;;;;;;;;;5011883;28;20493;-44
2024/03/16 06:38:07;;;;;;;227.35;60.33;;;;;;;;;;5011916;28;20172;-45
2024/03/16 06:40:34;;;;;;;227.88;61.03;;;;;;;;;;5011756;28;20210;-44
2024/03/16 06:43:00;;;;;;;230.68;66.43;;;;;;;;;;5011941;28;20206;-45
2024/03/16 06:45:26;;;;;;;228.13;62.67;;;;;;;;;;5011610;28;20168;-44
2024/03/16 06:47:52;;;;;;;225.80;60.80;;;;;;;;;;5011759;28;20180;-44
2024/03/16 06:50:21;;;;;;;225.40;60.63;;;;;;;;;;5011905;28;20176;-45
2024/03/16 06:52:47;;;;;;;225.43;59.45;;;;;;;;;;5011844;28;20180;-44
2024/03/16 06:55:13;;;;;;;230.40;63.90;;;;;;;;;;5011251;28;20176;-45
2024/03/16 06:57:39;;;;;;;226.55;62.00;;;;;;;;;;5010842;28;20418;-44
2024/03/16 07:00:08;;;;;;;225.33;63.07;;;;;;;;;;5011560;28;20203;-44
2024/03/16 07:02:34;;;;;;;225.27;59.50;;;;;;;;;;5011537;28;20569;-44
2024/03/16 07:05:00;;;;;;;223.43;59.47;;;;;;;;;;5011371;28;20692;-44
2024/03/16 07:07:26;;;;;;;223.93;60.45;;;;;;;;;;5011536;28;20972;-44
2024/03/16 07:09:54;;;;;;;224.32;60.17;;;;;;;;;;5008544;28;20640;-44
2024/03/16 07:12:21;;;;;;;224.32;59.47;;;;;;;;;;5011295;28;20174;-44
2024/03/16 07:14:47;;;;;;;228.32;65.40;;;;;;;;;;5011064;28;20176;-44
2024/03/16 07:17:13;;;;;;;225.48;62.08;;;;;;;;;;5010656;28;20200;-44
2024/03/16 07:19:39;;;;;;;226.00;63.03;;;;;;;;;;5011112;28;20172;-44
2024/03/16 07:22:05;;;;;;;223.03;61.57;;;;;;;;;;5011050;28;20570;-45
2024/03/16 07:24:31;;;;;;;228.97;65.10;;;;;;;;;;5011352;28;20439;-44
2024/03/16 07:26:57;;;;;;;222.17;59.27;;;;;;;;;;5010519;28;20496;-44
2024/03/16 07:29:23;;;;;;;226.70;62.23;;;;;;;;;;5011138;28;20415;-45
2024/03/16 07:31:49;;;;;;;225.23;61.63;;;;;;;;;;5010971;28;20837;-44
2024/03/16 07:34:16;;;;;;;225.07;59.85;;;;;;;;;;5011077;28;20228;-44
2024/03/16 07:36:42;;;;;;;230.57;67.65;;;;;;;;;;5010494;28;20203;-44
2024/03/16 07:39:09;;;;;;;227.40;64.20;;;;;;;;;;5010667;28;20597;-44
2024/03/16 07:41:35;;;;;;;224.25;60.30;;;;;;;;;;5010712;28;20202;-44
2024/03/16 07:44:02;;;;;;;225.98;61.80;;;;;;;;;;5002947;28;20533;-44
2024/03/16 07:46:28;;;;;;;227.82;64.15;;;;;;;;;;5010371;28;20195;-45
2024/03/16 07:48:56;;;;;;;228.57;65.83;;;;;;;;;;5010839;28;20179;-44
2024/03/16 07:51:28;;;;;;;227.15;64.78;;;;;;;;;;5010631;28;20414;-44
2024/03/16 07:53:55;;;;;;;224.40;61.90;;;;;;;;;;5010782;28;20191;-44
2024/03/16 07:56:21;;;;;;;224.95;60.72;;;;;;;;;;5010834;28;20476;-44
2024/03/16 07:58:47;;;;;;;231.10;69.60;;;;;;;;;;5010715;28;20798;-45
2024/03/16 08:01:13;;;;;;;228.82;63.88;;;;;;;;;;5010549;28;20453;-45
2024/03/16 08:03:39;;;;;;;228.50;65.45;;;;;;;;;;5010634;28;20183;-45
2024/03/16 08:06:07;;;;;;;221.75;58.00;;;;;;;;;;5010116;28;20212;-44
2024/03/16 08:08:33;;;;;;;224.98;60.50;;;;;;;;;;5006411;28;20172;-45
2024/03/16 08:10:59;;;;;;;224.05;60.90;;;;;;;;;;5014749;28;20212;-44
2024/03/16 08:13:25;;;;;;;226.73;63.47;;;;;;;;;;5014843;28;20587;-45
2024/03/16 08:15:52;;;;;;;229.80;68.67;;;;;;;;;;5014171;28;20204;-44
2024/03/16 08:18:18;;;;;;;225.88;61.95;;;;;;;;;;5014554;28;20410;-44
2024/03/16 08:20:44;;;;;;;227.23;64.75;;;;;;;;;;5014496;28;20197;-45
2024/03/16 08:23:10;;;;;;;226.63;62.70;;;;;;;;;;5014428;28;20174;-45
2024/03/16 08:25:36;;;;;;;226.60;62.27;;;;;;;;;;5014312;28;20443;-45
2024/03/16 08:28:02;;;;;;;230.47;66.53;;;;;;;;;;5014324;28;20476;-44
2024/03/16 08:30:28;;;;;;;229.32;63.72;;;;;;;;;;5014293;28;20419;-44
2024/03/16 08:32:54;;;;;;;230.30;67.37;;;;;;;;;;5010792;28;20198;-45
2024/03/16 08:35:21;;;;;;;237.40;69.32;;;;;;;;;;5013670;28;20422;-44
2024/03/16 08:37:47;;;;;;;233.30;72.45;;;;;;;;;;5014065;28;20181;-45
2024/03/16 08:40:14;;;;;;;231.97;67.73;;;;;;;;;;5014030;28;20212;-44
2024/03/16 08:42:40;;;;;;;233.07;70.82;;;;;;;;;;5014314;28;20464;-45
2024/03/16 08:45:10;;;;;;;234.45;71.78;;;;;;;;;;5014174;28;20179;-45
2024/03/16 08:47:36;;;;;;;234.65;73.50;;;;;;;;;;5013981;28;20537;-45
2024/03/16 08:50:05;;;;;;;236.20;75.38;;;;;;;;;;5013948;28;20178;-44
2024/03/16 08:52:31;;;;;;;234.50;72.22;;;;;;;;;;5013640;28;20183;-44
2024/03/16 08:54:57;;;;;;;234.63;73.03;;;;;;;;;;5013756;28;20173;-45
2024/03/16 08:57:23;;;;;;;229.27;67.20;;;;;;;;;;5013702;28;20431;-45
2024/03/16 08:59:51;;;;;;;232.98;70.18;;;;;;;;;;5013757;28;20500;-45
2024/03/16 09:02:19;;;;;;;235.48;70.55;;;;;;;;;;5013932;28;20662;-45
2024/03/16 09:04:46;;;;;;;230.30;67.90;;;;;;;;;;5013962;28;20254;-44
2024/03/16 09:07:12;;;;;;;226.82;65.22;;;;;;;;;;5013163;28;20208;-44
2024/03/16 09:09:38;;;;;;;229.20;66.47;;;;;;;;;;5013650;28;20539;-44
2024/03/16 09:12:04;;;;;;;230.65;68.47;;;;;;;;;;5013687;28;20183;-45
2024/03/16 09:14:35;;;;;;;227.70;65.75;;;;;;;;;;5013439;28;20615;-44
2024/03/16 09:17:01;;;;;;;230.55;70.50;;;;;;;;;;5013153;28;20193;-45
2024/03/16 09:19:27;;;;;;;229.35;66.40;;;;;;;;;;5013302;28;20189;-44
2024/03/16 09:21:53;;;;;;;230.03;69.10;;;;;;;;;;5012011;28;20211;-45
2024/03/16 09:24:19;;;;;;;231.13;70.50;;;;;;;;;;5014630;28;20408;-44
2024/03/16 09:26:45;;;;;;;231.07;70.90;;;;;;;;;;5013035;28;20427;-45
2024/03/16 09:29:11;;;;;;;241.30;77.60;;;;;;;;;;5012071;28;20176;-44
2024/03/16 09:31:37;;;;;;;230.17;68.70;;;;;;;;;;5013098;28;20650;-45
2024/03/16 09:34:06;;;;;;;228.77;69.30;;;;;;;;;;5012869;28;20476;-44
2024/03/16 09:36:33;;;;;;;225.85;63.90;;;;;;;;;;5012658;28;20485;-44
2024/03/16 09:38:59;;;;;;;230.07;70.43;;;;;;;;;;5012941;28;20279;-44
2024/03/16 09:41:25;;;;;;;231.67;70.40;;;;;;;;;;5012797;28;20235;-45
2024/03/16 09:43:53;;;;;;;227.05;63.60;;;;;;;;;;5012794;28;20830;-44
2024/03/16 09:46:19;;;;;;;228.13;66.35;;;;;;;;;;5012413;28;20226;-45
2024/03/16 09:48:45;;;;;;;230.23;71.20;;;;;;;;;;5012467;28;20203;-44
2024/03/16 09:51:15;;;;;;;228.82;65.47;;;;;;;;;;5011642;28;20511;-45
2024/03/16 09:53:41;;;;;;;237.73;76.03;;;;;;;;;;5010880;28;20263;-44
2024/03/16 09:56:09;;;;;;;235.50;72.57;;;;;;;;;;5010418;28;20202;-45
2024/03/16 09:58:36;;;;;;;227.38;65.65;;;;;;;;;;5012148;28;20180;-45
2024/03/16 10:01:03;;;;;;;228.38;65.03;;;;;;;;;;5011369;28;20199;-44
2024/03/16 10:03:30;;;;;;;229.27;70.57;;;;;;;;;;5010997;28;20520;-45
2024/03/16 10:05:57;;;;;;;227.95;66.25;;;;;;;;;;5011413;28;20758;-45
2024/03/16 10:08:23;;;;;;;232.50;73.90;;;;;;;;;;5012014;28;20549;-44
2024/03/16 10:10:49;;;;;;;231.60;71.40;;;;;;;;;;5012335;28;20668;-45
2024/03/16 10:13:17;;;;;;;231.15;71.53;;;;;;;;;;5012255;28;20180;-45
2024/03/16 10:15:43;;;;;;;230.07;67.85;;;;;;;;;;5011872;28;20192;-44
2024/03/16 10:18:14;;;;;;;236.02;72.93;;;;;;;;;;5010871;28;20227;-44
2024/03/16 10:20:40;;;;;;;234.52;73.57;;;;;;;;;;5011901;28;20535;-45
2024/03/16 10:23:15;;;;;;;233.02;72.38;;;;;;;;;;5009859;28;20229;-44
2024/03/16 10:25:44;;;;;;;231.15;71.03;;;;;;;;;;5009307;28;20539;-44
2024/03/16 10:28:14;;;;;;;229.95;67.63;;;;;;;;;;5011842;28;20256;-44
2024/03/16 10:30:40;;;;;;;234.93;74.72;;;;;;;;;;5012013;28;20637;-44
2024/03/16 10:33:07;;;;;;;237.02;78.95;;;;;;;;;;5010832;28;20186;-44
2024/03/16 10:35:34;;;;;;;237.57;78.50;;;;;;;;;;5011490;28;20200;-44
2024/03/16 10:38:03;;;;;;;238.68;80.95;;;;;;;;;;5011039;28;20176;-44
2024/03/16 10:40:29;;;;;;;230.73;70.47;;;;;;;;;;5010423;28;20200;-45
2024/03/16 10:42:55;;;;;;;235.98;75.43;;;;;;;;;;5011196;28;20184;-44
2024/03/16 10:45:21;;;;;;;239.77;76.68;;;;;;;;;;5011366;28;20191;-45
2024/03/16 10:47:53;;;;;;;234.93;74.60;;;;;;;;;;5011621;28;20176;-45
2024/03/16 10:50:20;;;;;;;231.35;70.10;;;;;;;;;;5011917;28;20185;-44
2024/03/16 10:52:50;;;;;;;236.25;77.10;;;;;;;;;;5011857;28;20180;-44
2024/03/16 10:55:22;;;;;;;232.85;73.03;;;;;;;;;;5011244;28;20176;-44
2024/03/16 10:57:49;;;;;;;235.38;78.18;;;;;;;;;;5011753;28;20547;-44
2024/03/16 11:00:21;;;;;;;232.98;72.70;;;;;;;;;;5011671;28;20195;-44
2024/03/16 11:03:00;;;;;;;231.35;71.47;;;;;;;;;;5011588;28;20179;-44
2024/03/16 11:05:35;;;;;;;230.75;69.95;;;;;;;;;;5011183;28;20175;-44
2024/03/16 11:08:13;;;;;;;233.98;76.53;;;;;;;;;;5010239;28;20534;-44
2024/03/16 11:10:40;;;;;;;230.70;73.85;;;;;;;;;;5011406;28;20205;-44
2024/03/16 11:13:20;;;;;;;240.75;81.15;;;;;;;;;;5011231;28;20185;-44
2024/03/16 11:15:49;;;;;;;233.82;75.60;;;;;;;;;;5010972;28;20489;-44
2024/03/16 11:18:21;;;;;;;231.70;71.18;;;;;;;;;;5011053;28;20178;-44
2024/03/16 11:20:53;;;;;;;232.43;72.57;;;;;;;;;;5009870;28;20250;-44
2024/03/16 11:23:23;;;;;;;232.75;73.85;;;;;;;;;;5010027;28;20210;-44
2024/03/16 11:25:49;;;;;;;228.27;70.18;;;;;;;;;;5011085;28;20223;-44
2024/03/16 11:28:15;;;;;;;232.20;72.37;;;;;;;;;;5011031;28;20206;-45
2024/03/16 11:30:41;;;;;;;233.88;73.97;;;;;;;;;;5011102;28;20446;-44
2024/03/16 11:33:14;;;;;;;234.80;77.20;;;;;;;;;;5011086;28;20677;-45
2024/03/16 11:35:40;;;;;;;232.57;71.57;;;;;;;;;;5011126;28;20882;-45
2024/03/16 11:38:15;;;;;;;237.82;81.13;;;;;;;;;;5011182;28;20235;-45
2024/03/16 11:40:42;;;;;;;239.90;85.28;;;;;;;;;;5011165;28;20203;-45
2024/03/16 11:43:09;;;;;;;234.52;76.93;;;;;;;;;;5010951;28;20249;-45
2024/03/16 11:45:36;;;;;;;237.55;79.40;;;;;;;;;;5009400;28;20203;-45
2024/03/16 11:48:07;;;;;;;235.20;74.28;;;;;;;;;;5009277;28;20226;-45
2024/03/16 11:50:33;;;;;;;231.07;71.28;;;;;;;;;;5007221;28;20176;-45
2024/03/16 11:52:59;;;;;;;234.90;76.70;;;;;;;;;;5010431;28;20245;-45
2024/03/16 11:55:29;;;;;;;232.20;70.70;;;;;;;;;;5010375;28;20422;-45
2024/03/16 11:57:57;;;;;;;235.57;76.72;;;;;;;;;;5010672;28;20412;-44
2024/03/16 12:00:23;;;;;;;237.63;81.38;;;;;;;;;;5010810;28;20228;-45
2024/03/16 12:02:51;;;;;;;229.53;68.53;;;;;;;;;;5011071;28;20184;-45
2024/03/16 12:05:19;;;;;;;233.65;73.60;;;;;;;;;;5010598;28;20411;-45
2024/03/16 12:07:46;;;;;;;230.00;69.60;;;;;;;;;;5011381;28;20200;-45
2024/03/16 12:10:14;;;;;;;233.60;74.72;;;;;;;;;;5010895;28;20619;-45
2024/03/16 12:12:40;;;;;;;230.65;71.13;;;;;;;;;;5010946;28;20184;-44
2024/03/16 12:15:15;;;;;;;235.52;76.05;;;;;;;;;;5010537;28;20176;-45
2024/03/16 12:17:44;;;;;;;232.48;73.00;;;;;;;;;;5010648;28;20190;-45
2024/03/16 12:20:11;;;;;;;237.50;79.35;;;;;;;;;;5010494;28;20230;-45
2024/03/16 12:22:56;;;;;;;232.60;73.13;;;;;;;;;;5010756;28;20237;-45
2024/03/16 12:25:27;;;;;;;237.95;78.90;;;;;;;;;;5009192;28;20181;-45
2024/03/16 12:27:53;;;;;;;235.75;77.05;;;;;;;;;;5010692;28;20264;-45
2024/03/16 12:30:19;;;;;;;239.90;79.28;;;;;;;;;;5010775;28;20247;-45
2024/03/16 12:32:45;;;;;;;235.85;75.85;;;;;;;;;;5010793;28;20178;-45
2024/03/16 12:35:12;;;;;;;246.25;84.22;;;;;;;;;;5010289;28;20186;-45
2024/03/16 12:37:38;;;;;;;239.45;79.10;;;;;;;;;;5010498;28;20179;-45
2024/03/16 12:40:05;;;;;;;240.52;81.10;;;;;;;;;;5010492;28;20200;-45
2024/03/16 12:42:32;;;;;;;239.13;76.75;;;;;;;;;;5010417;28;20175;-45
2024/03/16 12:44:58;;;;;;;241.75;79.75;;;;;;;;;;5010280;28;20173;-45
2024/03/16 12:47:24;;;;;;;239.47;79.47;;;;;;;;;;5010261;28;20204;-45
2024/03/16 12:49:50;;;;;;;239.30;80.93;;;;;;;;;;5009236;28;20450;-45
2024/03/16 12:52:16;;;;;;;238.77;77.00;;;;;;;;;;5010203;28;20415;-45
2024/03/16 12:54:42;;;;;;;235.70;76.87;;;;;;;;;;5010569;28;20422;-44
2024/03/16 12:57:09;;;;;;;235.43;77.40;;;;;;;;;;5012355;28;20435;-45
2024/03/16 12:59:37;;;;;;;240.50;86.63;;;;;;;;;;5013873;28;20413;-45
2024/03/16 13:02:03;;;;;;;238.02;79.78;;;;;;;;;;5013787;28;20213;-45
2024/03/16 13:04:29;;;;;;;237.77;79.10;;;;;;;;;;5013518;28;20176;-45
2024/03/16 13:06:55;;;;;;;236.57;79.73;;;;;;;;;;5013186;28;20824;-45
2024/03/16 13:09:25;;;;;;;233.13;74.77;;;;;;;;;;5013529;28;20798;-45
2024/03/16 13:11:51;;;;;;;237.15;77.75;;;;;;;;;;5013551;28;20413;-45
2024/03/16 13:14:17;;;;;;;236.73;76.93;;;;;;;;;;5013754;28;20179;-45
2024/03/16 13:16:43;;;;;;;240.33;82.27;;;;;;;;;;5013256;28;20520;-45
2024/03/16 13:19:12;;;;;;;241.00;80.90;;;;;;;;;;5013316;28;20413;-45
2024/03/16 13:21:38;;;;;;;236.32;76.63;;;;;;;;;;5013391;28;20748;-45
2024/03/16 13:24:06;;;;;;;242.57;85.88;;;;;;;;;;5013355;28;20555;-44
2024/03/16 13:26:32;;;;;;;237.00;79.40;;;;;;;;;;5013227;28;20275;-45
2024/03/16 13:28:59;;;;;;;235.73;80.77;;;;;;;;;;5014116;28;20265;-44
2024/03/16 13:31:25;;;;;;;235.07;77.65;;;;;;;;;;5013209;28;20468;-44
2024/03/16 13:33:51;;;;;;;233.40;72.60;;;;;;;;;;5012920;28;20598;-45
2024/03/16 13:36:17;;;;;;;232.15;71.68;;;;;;;;;;5013065;28;20496;-45
2024/03/16 13:38:43;;;;;;;233.93;76.73;;;;;;;;;;5013112;28;20204;-44
2024/03/16 13:41:12;;;;;;;235.07;76.70;;;;;;;;;;5012911;28;20533;-44
2024/03/16 13:43:42;;;;;;;231.93;74.30;;;;;;;;;;5013040;28;20478;-45
2024/03/16 13:46:12;;;;;;;234.60;76.35;;;;;;;;;;5012369;28;20188;-44
2024/03/16 13:48:38;;;;;;;239.43;83.18;;;;;;;;;;5013158;28;20170;-45
2024/03/16 13:51:04;;;;;;;233.52;72.22;;;;;;;;;;5013768;28;20183;-45
2024/03/16 13:53:30;;;;;;;238.67;81.60;;;;;;;;;;5011698;28;20187;-45
2024/03/16 13:55:57;;;;;;;240.05;81.20;;;;;;;;;;5010661;28;20807;-45
2024/03/16 13:58:23;;;;;;;238.85;82.53;;;;;;;;;;5011110;28;20650;-45
2024/03/16 14:00:49;;;;;;;239.63;79.47;;;;;;;;;;5011739;28;20206;-45
2024/03/16 14:03:16;;;;;;;237.40;78.73;;;;;;;;;;5011268;28;20189;-45